• Join FlightAware (Why Join?)
  • Login
  • US Flag 
09:08PM EST


 

Airport Tracker/Info


-or-


 

Live Flight TrackerFlight Track Log ✈ UAL395 ✈ 21-Aug-2013 ✈ KEWR - KORD

Flight Track Log - Related Links

Times and Time Zones

All times are in EDT time to prevent confusion due to time zone crossing. See the UAL395 flight status page for this flight to view local times or setup timezone preferences in your user account.

Time Position Orientation Groundspeed Altitude Reporting Facility
EDT Latitude Longitude Course Direction KTS MPH feet Rate Location/Type
02:04PM 40.6500 -74.2000 294° West 172 198 1,700  Level New York TRACON
02:05PM 40.7000 -74.2500 323° Northwest 225 259 3,900 2,880 Climbing New York TRACON
02:06PM 40.7500 -74.3167 315° West 265 305 7,500 3,000 Climbing New York TRACON
02:07PM 40.8167 -74.3833 323° Northwest 285 328 10,000 1,260 Climbing New York TRACON
02:08PM 40.8833 -74.4500 323° Northwest 341 392 10,100 900 Climbing New York TRACON
02:08PM 40.9361 -74.4983 325° Northwest 361 415 11,400 2,460 Climbing New York Center
02:09PM 41.1446 -74.7338 294° West  Level FlightAware Approximate
02:09PM 41.0169 -74.5772 324° Northwest 387 445 14,000  Level New York Center
02:10PM 41.1017 -74.6589 324° Northwest 408 470 16,500 2,220 Climbing New York Center
02:11PM 41.1689 -74.7675 309° West 392 451 18,500 1,800 Climbing New York Center
02:12PM 41.2192 -74.8836 300° West 382 440 20,200 1,860 Climbing New York Center
02:13PM 41.2806 -75.0281 300° West 403 464 22,300 1,920 Climbing New York Center
02:14PM 41.3383 -75.1589 300° West 409 471 24,100 1,620 Climbing New York Center
02:15PM 41.3978 -75.2983 300° West 419 482 25,600 1,440 Climbing New York Center
02:16PM 41.4567 -75.4408 299° West 430 495 27,000 1,440 Climbing New York Center
02:17PM 41.5069 -75.5883 295° West 435 501 28,500 1,320 Climbing New York Center
02:18PM 41.5525 -75.7467 291° West 447 514 29,700 1,260 Climbing New York Center
02:19PM 41.5981 -75.9028 291° West 454 522 31,100 1,500 Climbing New York Center
02:20PM 41.6431 -76.0589 291° West 459 528 32,700 1,500 Climbing New York Center
02:21PM 41.6825 -76.2008 290° West 454 522 34,100 1,260 Climbing New York Center
02:22PM 41.7236 -76.3514 290° West 454 522 35,300 600 Climbing New York Center
02:24PM 41.8006 -76.6386 290° West 459 528 36,000 240 Climbing Cleveland Center
02:25PM 41.8431 -76.7894 291° West 449 517 36,000  Level Cleveland Center
02:26PM 41.8856 -76.9431 290° West 444 511 36,000  Level Cleveland Center
02:27PM 41.9258 -77.0944 290° West 444 511 36,000  Level Cleveland Center
02:28PM 41.9678 -77.2483 290° West 444 511 36,000  Level Cleveland Center
02:29PM 42.0122 -77.4111 290° West 438 504 36,000  Level Cleveland Center
02:30PM 42.0517 -77.5631 289° West 438 504 36,000  Level Cleveland Center
02:31PM 42.0931 -77.7178 290° West 438 504 36,000  Level Cleveland Center
02:32PM 42.1344 -77.8700 290° West 438 504 36,000  Level Cleveland Center
02:33PM 42.1733 -78.0250 289° West 438 504 36,000  Level Cleveland Center
02:34PM 42.2142 -78.1806 290° West 438 504 36,000  Level Cleveland Center
02:35PM 42.2550 -78.3361 290° West 438 504 36,000  Level Cleveland Center
02:36PM 42.2953 -78.4919 289° West 438 504 36,000  Level Cleveland Center
02:37PM 42.3356 -78.6506 289° West 438 504 36,000  Level Cleveland Center
02:38PM 42.3736 -78.8014 289° West 438 504 36,000  Level Cleveland Center
02:39PM 42.4133 -78.9606 289° West 438 504 36,000  Level Cleveland Center
02:40PM 42.4508 -79.1172 288° West 438 504 36,000  Level Cleveland Center
02:41PM 42.4861 -79.2769 287° West 438 504 36,000  Level Cleveland Center
02:42PM 42.5003 -79.4369 277° West 433 498 36,000  Level Cleveland Center
02:43PM 42.5061 -79.5975 273° West 428 493 36,000  Level Cleveland Center
02:44PM 42.5178 -79.7550 276° West 428 493 36,000  Level Cleveland Center
02:45PM 42.5247 -79.8872 274° West 428 493 36,000  Level Cleveland Center
02:46PM 42.5278 -80.0619 271° West 423 487 36,000  Level Cleveland Center
02:47PM 42.5347 -80.2253 273° West 422 486 36,000  Level Cleveland Center
02:48PM 42.5433 -80.3917 274° West 432 497 36,000  Level Cleveland Center
02:49PM 42.5497 -80.5550 273° West 442 509 36,000  Level Cleveland Center
02:50PM 42.5561 -80.7214 273° West 448 516 36,000  Level Cleveland Center
02:51PM 42.5619 -80.9017 273° West 441 507 36,000  Level Cleveland Center
02:52PM 42.5675 -81.0653 273° West 441 507 36,000  Level Cleveland Center
02:53PM 42.5750 -81.2317 274° West 441 507 36,000  Level Cleveland Center
02:54PM 42.5803 -81.3953 273° West 441 507 36,000  Level Cleveland Center
02:55PM 42.6019 -81.5647 280° West 447 514 36,000  Level Cleveland Center
02:56PM 42.6317 -81.7317 284° West 447 514 36,000  Level Cleveland Center
02:57PM 42.6572 -81.8761 284° West 450 518 36,000  Level Cleveland Center
02:58PM 42.6864 -82.0464 283° West 456 525 36,000  Level Cleveland Center
02:59PM 42.7156 -82.2136 283° West 456 525 36,000  Level Cleveland Center
03:00PM 42.7442 -82.3783 283° West 451 519 36,000  Level Cleveland Center
03:01PM 42.7728 -82.5489 283° West 451 519 36,000  Level Cleveland Center
03:02PM 42.8008 -82.7197 283° West 451 519 36,000  Level Cleveland Center
03:03PM 42.8289 -82.8933 282° West 456 525 36,000 -180 Level Cleveland Center
03:04PM 42.8567 -83.0642 283° West 456 525 35,700 -660 Descending Cleveland Center
03:05PM 42.8839 -83.2353 282° West 456 525 34,700 -1,080 Descending Cleveland Center
03:06PM 42.9111 -83.4067 282° West 462 532 33,600 -1,140 Descending Cleveland Center
03:07PM 42.9403 -83.5811 283° West 467 537 32,500 -840 Descending Cleveland Center
03:08PM 42.9583 -83.7550 278° West 467 537 32,000 -300 Descending Cleveland Center
03:09PM 42.9464 -83.9558 265° West 472 543 32,000  Level Cleveland Center
03:10PM 42.9286 -84.1336 262° West 472 543 32,000  Level Cleveland Center
03:12PM 42.8928 -84.5006 263° West 474 545 32,000  Level Chicago Center
03:13PM 42.8744 -84.6783 262° West 475 547 32,000  Level Chicago Center
03:14PM 42.8564 -84.8553 262° West 472 543 32,000  Level Chicago Center
03:15PM 42.8333 -85.0681 262° West 473 544 32,000 -60 Level Chicago Center
03:17PM 42.8142 -85.2458 262° West 475 547 31,900 -600 Descending Chicago Center
03:18PM 42.7939 -85.4203 261° West 469 540 30,800 -1,740 Descending Chicago Center
03:19PM 42.7700 -85.5933 259° West 466 536 28,400 -2,760 Descending Chicago Center
03:20PM 42.7372 -85.7628 255° West 461 531 25,200 -2,880 Descending Chicago Center
03:21PM 42.7083 -85.9283 257° West 452 520 22,500 -2,400 Descending Chicago Center
03:22PM 42.6792 -86.0867 256° West 434 499 20,200 -1,200 Descending Chicago Center
03:23PM 42.6514 -86.2394 256° West 419 482 20,000 -600 Descending Chicago Center
03:24PM 42.6167 -86.4197 255° West 409 471 19,000 -1,380 Descending Chicago Center
03:25PM 42.5892 -86.5683 256° West 406 467 17,200 -1,860 Descending Chicago Center
03:26PM 42.5639 -86.7128 257° West 395 455 15,200 -1,980 Descending Chicago Center
03:27PM 42.5281 -86.8475 250° West 383 441 13,200 -1,980 Descending Chicago Center
03:28PM 42.4931 -86.9778 250° West 370 426 11,200 -1,560 Descending Chicago Center
03:29PM 42.4572 -87.1011 249° West 356 410 10,000 -720 Descending Chicago Center
03:30PM 42.4175 -87.2467 250° West 337 388 9,800 -540 Descending Chicago Center
03:31PM 42.3900 -87.3453 249° West 286 329 9,000 -420 Descending Chicago Center
03:32PM 42.3144 -87.3897 204° Southwest 300 345 9,000 -180 Level Chicago Center
03:33PM 42.2450 -87.4408 209° Southwest 289 333 8,700 -900 Descending Chicago Center
03:34PM 42.1803 -87.4997 214° Southwest 285 328 7,200 -1,260 Descending Chicago Center
03:35PM 42.1208 -87.5569 216° Southwest 268 308 6,100 -1,140 Descending Chicago Center
03:36PM 42.0528 -87.5972 204° Southwest 227 261 4,900 -1,020 Descending Chicago Center
03:37PM 41.9956 -87.6175 195° South 219 252 4,000 -780 Descending Chicago Center
03:38PM 41.9836 -87.6903 258° West 205 236 3,400 -780 Descending Chicago Center
03:39PM 41.9844 -87.7603 271° West 195 224 2,500 -900 Descending Chicago Center
03:40PM 41.9833 -87.8167 269° West 139 160 1,800 -780 Descending Chicago TRACON
03:41PM 41.9833 -87.8667 270° West 123 142 1,100 -720 Descending Chicago TRACON